Crawfordsville, IN (47939)

5:48 AM EST on December 21, 2014 (GMT -0500)
Linden | Change Station
CLOSE
Current Station
Personal Weather Station
Location: Linden, IN
Elevation: 745 ft
Nearby Weather Stations

Elev 745 ft 40.28 °N, 87.02 °W | Updated 5 seconds ago

Partly Cloudy
Partly Cloudy
25.9 °F
Feels Like 26 °F
N
0.0
Wind Variable Wind from SE
Gusts 0.0 mph

Today
High -- | Low -- °F
--% Chance of Precip.
Yesterday
High -- | Low -- °F
Precip. -- in
8:06 AM 5:25 PM
Waning Crescent, 1% visible
Pressure 30.29 in
Visibility 8.0 miles
Clouds Overcast 6000 ft
Windchill 26 °F
Dew Point 26 °F
Humidity 99%
Rainfall 0.00 in
Snow Depth Not available.
UV 0 out of 12
Pollen .10 out of 12
Air Quality Not available.
Flu Activity Not available.
METAR KLAF 210954Z AUTO 13005KT 8SM OVC060 M02/M04 A3027 RMK AO2 SLP255 T10221044 TSNO

More Conditions Fewer Conditions

Pressure 30.29 in
Visibility 8.0 miles
Clouds Overcast 6000 ft
Windchill 26 °F
Dew Point 26 °F
Humidity 99%
Rainfall 0.00 in
Snow Depth Not available.
UV 0 out of 12
Pollen .10 out of 12
Air Quality Not available.
Flu Activity Not available.
METAR KLAF 210954Z AUTO 13005KT 8SM OVC060 M02/M04 A3027 RMK AO2 SLP255 T10221044 TSNO

More Conditions Fewer Conditions

10-Day Weather Forecast

Almanac

Astronomy

Dec. 21, 2014 Rise Set
Actual Time
Civil Twilight
Nautical Twilight
Astronomical Twilight
Moon
Length of Visible Light
Length of Day
Tomorrow will be .
, % of the Moon is Illuminated

Today's Extremes

State Highs State Lows

Community

WunderPhotos

Upload Photos

1,779,367 photos uploaded!

WunderBlogs® & News

Nearby

Air Quality

  Air Quality AQ Index Pollutant
Not available.

Snow Depth

Station Depth Elevation

Earthquake Activity

City Distance Mag. Time & Date
Minimum magnitude displayed is 2.5.

Coastal Water Temperatures

Place Temperature

Nearby Weather Stations